This is the latest recevied weather packets stored in our database for station/object IK1PCD-11. If no packets are shown the sender has not sent any weather packets the latest 10 day(s).
| Time | Temp. | Humidity | Pressure | Rain* | Wind** | Luminosity | Snow |
|---|---|---|---|---|---|---|---|
| 1788062949 | 10.56° C | 100% | 1018.5 hPa | - | - | - | - |
| 1788062049 | 10.56° C | 100% | 1018.4 hPa | - | - | - | - |
| 1788039550 | 9.44° C | 100% | 1018.2 hPa | - | - | - | - |
| 1788038650 | 9.44° C | 100% | 1018.1 hPa | - | - | - | - |
| 1788037752 | 9.44° C | 100% | 1018.3 hPa | - | - | - | - |
| 1788036849 | 9.44° C | 100% | 1018.2 hPa | - | - | - | - |
| 1788035949 | 10° C | 100% | 1018.2 hPa | - | - | - | - |
| 1788035047 | 10° C | 100% | 1018.3 hPa | - | - | - | - |
| 1788034147 | 10° C | 100% | 1018.4 hPa | - | - | - | - |
| 1788012489 | 21.11° C | 100% | 1017.7 hPa | - | - | - | - |
| 1788008888 | 21.67° C | 100% | 1017.9 hPa | - | - | - | - |
| 1788007988 | 22.22° C | 100% | 1017.9 hPa | - | - | - | - |
| 1788007088 | 22.22° C | 100% | 1018 hPa | - | - | - | - |
| 1788006188 | 22.22° C | 100% | 1018.1 hPa | - | - | - | - |
| 1788004387 | 21.67° C | 100% | 1018.4 hPa | - | - | - | - |
| 1788000786 | 21.11° C | 100% | 1018.2 hPa | - | - | - | - |
| 1787999889 | 21.11° C | 100% | 1018.3 hPa | - | - | - | - |
| 1787998989 | 20.56° C | 100% | 1018.3 hPa | - | - | - | - |
| 1787998089 | 20.56° C | 100% | 1018.3 hPa | - | - | - | - |
| 1787997189 | 20° C | 100% | 1018.4 hPa | - | - | - | - |
| 1787996289 | 19.44° C | 100% | 1018.3 hPa | - | - | - | - |
| 1787993588 | 18.33° C | 100% | 1018.3 hPa | - | - | - | - |
| 1787992688 | 17.78° C | 100% | 1018.1 hPa | - | - | - | - |
| 1787991788 | 16.11° C | 100% | 1018.6 hPa | - | - | - | - |
| 1787990892 | 15.56° C | 100% | 1018.4 hPa | - | - | - | - |
* Rain since midnight (hover to see other rain measurements)
** Current wind speed in m/s (hover to see current wind gust speed)